Time;durP1;ratioP1;P1;durP2;ratioP2;P2;SDS_P1;SDS_P2;PMS_P1;PMS_P2;Temp;Humidity;BMP_temperature;BMP_pressure;BME280_temperature;BME280_humidity;BME280_pressure;Samples;Min_cycle;Max_cycle;Signal;HPM_P1;HPM_P2
2021/12/24 00:00:48;;;;;;;21.00;14.70;;;9.60;99.90;;;;;;5062314;28;20501;-83
2021/12/24 00:03:14;;;;;;;18.23;15.00;;;9.80;99.90;;;;;;5062869;28;20430;-84
2021/12/24 00:05:40;;;;;;;19.50;15.30;;;9.60;99.90;;;;;;5048922;28;20423;-83
2021/12/24 00:08:06;;;;;;;19.60;14.57;;;9.70;99.90;;;;;;5042627;28;20440;-81
2021/12/24 00:10:33;;;;;;;18.47;13.90;;;9.40;99.90;;;;;;5051776;28;20866;-83
2021/12/24 00:13:04;;;;;;;16.20;13.57;;;9.60;99.90;;;;;;5062061;28;20423;-83
2021/12/24 00:18:18;;;;;;;21.50;13.43;;;9.50;99.90;;;;;;5073998;28;20478;-82
2021/12/24 00:36:39;;;;;;;15.90;12.90;;;9.30;99.90;;;;;;5050006;28;21100;-83
2021/12/24 00:39:05;;;;;;;15.93;12.23;;;9.30;99.90;;;;;;5044324;28;20508;-84
2021/12/24 00:41:30;;;;;;;16.03;12.97;;;9.30;99.90;;;;;;5053040;28;20200;-83
2021/12/24 00:43:56;;;;;;;14.87;12.60;;;9.20;99.90;;;;;;5054097;28;20644;-84
2021/12/24 00:46:22;;;;;;;16.67;12.90;;;9.20;99.90;;;;;;5059179;28;20178;-83
2021/12/24 00:48:48;;;;;;;16.87;13.37;;;9.20;99.90;;;;;;5043066;28;20261;-84
2021/12/24 00:51:29;;;;;;;16.47;13.40;;;9.20;99.90;;;;;;5072901;28;20200;-83
2021/12/24 00:56:21;;;;;;;17.03;14.20;;;9.20;99.90;;;;;;5061332;28;20471;-81
2021/12/24 00:58:47;;;;;;;16.50;12.60;;;9.20;99.90;;;;;;5075419;28;20200;-83
2021/12/24 01:01:15;;;;;;;15.80;12.80;;;9.20;99.90;;;;;;5078240;28;20281;-84
2021/12/24 01:03:41;;;;;;;14.93;11.93;;;9.10;99.90;;;;;;5068926;28;20475;-82
2021/12/24 01:06:07;;;;;;;16.07;11.70;;;9.30;99.90;;;;;;5052929;28;20447;-85
2021/12/24 01:08:34;;;;;;;12.63;11.00;;;9.10;99.90;;;;;;5068251;28;20965;-82
2021/12/24 01:11:03;;;;;;;13.87;10.30;;;9.00;99.90;;;;;;5034876;28;20196;-83
2021/12/24 01:13:29;;;;;;;13.67;11.13;;;9.40;99.90;;;;;;5056962;28;20439;-85
2021/12/24 01:24:18;;;;;;;11.30;9.57;;;9.00;99.90;;;;;;5025498;28;20426;-82
2021/12/24 01:29:40;;;;;;;12.93;10.37;;;9.10;99.90;;;;;;5074772;28;20450;-85
2021/12/24 01:42:53;;;;;;;12.70;9.43;;;9.20;99.90;;;;;;5067002;28;20461;-84
2021/12/24 01:45:36;;;;;;;10.77;9.67;;;8.90;99.90;;;;;;5056668;28;20452;-81
2021/12/24 01:48:09;;;;;;;10.73;9.60;;;9.00;99.90;;;;;;5062464;28;20516;-84
2021/12/24 01:50:38;;;;;;;12.17;10.50;;;9.00;99.90;;;;;;5044918;28;20427;-84
2021/12/24 01:53:05;;;;;;;12.43;9.93;;;9.20;99.90;;;;;;5040618;28;20420;-84
2021/12/24 01:55:32;;;;;;;13.47;11.00;;;9.00;99.90;;;;;;5052064;28;20442;-85
2021/12/24 01:57:58;;;;;;;13.47;11.07;;;9.20;99.90;;;;;;5056052;28;20459;-85
2021/12/24 02:00:28;;;;;;;13.27;10.90;;;9.00;99.90;;;;;;5056921;28;20825;-86
2021/12/24 02:02:54;;;;;;;12.70;10.90;;;9.10;99.90;;;;;;5073446;28;20423;-82
2021/12/24 02:05:20;;;;;;;12.50;10.17;;;9.10;99.90;;;;;;5053806;28;20989;-80
2021/12/24 02:07:47;;;;;;;12.60;10.70;;;9.10;99.90;;;;;;5039450;28;20478;-86
2021/12/24 02:10:14;;;;;;;13.67;11.43;;;9.20;99.90;;;;;;5073759;28;20451;-84
2021/12/24 02:12:40;;;;;;;12.50;9.67;;;9.00;99.90;;;;;;5048002;28;20439;-83
2021/12/24 02:15:14;;;;;;;12.20;10.40;;;9.10;99.90;;;;;;5056983;28;20856;-84
2021/12/24 02:28:30;;;;;;;16.00;13.60;;;9.10;99.90;;;;;;5068981;28;20483;-85
2021/12/24 02:30:56;;;;;;;15.97;12.80;;;9.10;99.90;;;;;;5034994;28;20458;-83
2021/12/24 02:33:22;;;;;;;18.57;15.30;;;8.90;99.90;;;;;;5069585;28;20440;-83
2021/12/24 02:35:48;;;;;;;19.63;14.53;;;8.80;99.90;;;;;;5069700;28;20933;-82
2021/12/24 02:38:14;;;;;;;21.80;16.37;;;8.90;99.90;;;;;;5055879;28;20204;-83
2021/12/24 02:40:39;;;;;;;20.70;15.40;;;8.80;99.90;;;;;;5077112;28;20623;-86
2021/12/24 02:43:09;;;;;;;22.70;15.97;;;8.70;99.90;;;;;;5051407;28;20442;-83
2021/12/24 02:45:35;;;;;;;23.03;16.20;;;8.80;99.90;;;;;;5036905;28;20186;-86
2021/12/24 02:56:13;;;;;;;26.30;17.30;;;9.00;99.90;;;;;;5057947;28;20458;-84
2021/12/24 02:58:45;;;;;;;21.07;16.33;;;8.70;99.90;;;;;;5048786;28;20988;-83
2021/12/24 03:01:15;;;;;;;22.07;16.63;;;8.90;99.90;;;;;;5054791;28;20472;-86
2021/12/24 03:03:43;;;;;;;23.77;16.87;;;8.90;99.90;;;;;;5036426;28;20433;-85
2021/12/24 03:06:09;;;;;;;22.90;15.97;;;9.10;99.90;;;;;;5036017;28;20432;-81
2021/12/24 03:08:35;;;;;;;20.07;15.60;;;9.10;99.90;;;;;;5036418;28;20444;-82
2021/12/24 03:11:01;;;;;;;21.87;16.50;;;9.00;99.90;;;;;;5067087;28;20530;-83
2021/12/24 03:13:28;;;;;;;19.43;15.47;;;8.80;99.90;;;;;;5052592;28;20446;-84
2021/12/24 03:15:58;;;;;;;20.23;15.23;;;8.90;99.90;;;;;;5070031;28;20197;-86
2021/12/24 03:18:28;;;;;;;17.37;14.00;;;9.10;99.90;;;;;;5072201;28;20447;-85
2021/12/24 03:21:04;;;;;;;19.60;13.47;;;8.80;99.90;;;;;;5061496;28;20475;-85
2021/12/24 03:23:42;;;;;;;18.87;13.10;;;8.90;99.90;;;;;;5037930;28;20775;-84
2021/12/24 03:26:14;;;;;;;18.63;13.70;;;8.90;99.90;;;;;;5057770;28;20458;-85
2021/12/24 03:28:40;;;;;;;20.67;14.73;;;8.90;99.90;;;;;;5073927;28;20455;-83
2021/12/24 03:31:07;;;;;;;17.00;14.00;;;9.10;99.90;;;;;;5056333;28;20446;-83
2021/12/24 03:33:35;;;;;;;17.83;13.93;;;8.90;99.90;;;;;;5056480;28;20492;-84
2021/12/24 03:36:06;;;;;;;16.47;13.97;;;9.00;99.90;;;;;;5059874;28;20525;-81
2021/12/24 03:38:35;;;;;;;19.27;14.07;;;8.90;99.90;;;;;;5053764;28;20435;-82
2021/12/24 03:41:01;;;;;;;18.47;14.40;;;9.20;99.90;;;;;;5044440;28;20467;-82
2021/12/24 03:43:26;;;;;;;17.57;13.57;;;9.00;99.90;;;;;;5063311;28;20546;-82
2021/12/24 03:48:24;;;;;;;22.60;16.40;;;8.80;99.90;;;;;;5070334;28;20296;-81
2021/12/24 03:51:07;;;;;;;20.80;16.23;;;9.10;99.90;;;;;;5047890;28;20208;-81
2021/12/24 03:56:17;;;;;;;29.30;18.43;;;9.00;99.90;;;;;;5049686;28;20937;-82
2021/12/24 03:58:43;;;;;;;25.00;19.73;;;9.00;99.90;;;;;;5058656;28;20483;-83
2021/12/24 04:01:09;;;;;;;27.40;17.50;;;9.00;99.90;;;;;;5038524;28;20295;-82
2021/12/24 04:03:35;;;;;;;28.43;19.70;;;9.00;99.90;;;;;;5077325;28;20416;-83
2021/12/24 04:06:01;;;;;;;24.83;18.20;;;9.10;99.90;;;;;;5071921;28;20498;-83
2021/12/24 04:08:27;;;;;;;25.90;19.47;;;9.00;99.90;;;;;;5079303;28;20201;-84
2021/12/24 04:10:53;;;;;;;27.10;19.43;;;9.10;99.90;;;;;;5097287;28;20423;-84
2021/12/24 04:13:18;;;;;;;26.50;19.73;;;9.00;99.90;;;;;;5063262;28;20432;-82
2021/12/24 04:15:45;;;;;;;26.00;19.70;;;9.30;99.90;;;;;;5043940;28;20422;-82
2021/12/24 04:18:19;;;;;;;26.20;18.60;;;9.30;99.90;;;;;;5049094;28;20843;-83
2021/12/24 04:26:13;;;;;;;25.90;19.37;;;9.00;99.90;;;;;;5077721;28;20549;-83
2021/12/24 04:28:39;;;;;;;28.40;19.90;;;9.00;99.90;;;;;;5060759;28;20448;-83
2021/12/24 04:31:05;;;;;;;28.97;20.10;;;9.20;99.90;;;;;;5040531;28;20956;-82
2021/12/24 04:33:35;;;;;;;27.60;20.50;;;9.00;99.90;;;;;;5058825;28;20186;-84
2021/12/24 04:38:39;;;;;;;25.50;19.60;;;9.00;99.90;;;;;;5066556;28;20842;-84
2021/12/24 04:52:15;;;;;;;31.93;22.37;;;9.30;99.90;;;;;;5078714;28;20419;-84
2021/12/24 05:03:03;;;;;;;32.50;23.83;;;8.90;99.90;;;;;;5078574;28;20424;-84
2021/12/24 05:05:50;;;;;;;27.77;21.30;;;9.10;99.90;;;;;;5058906;28;20432;-83
2021/12/24 05:08:21;;;;;;;35.00;23.27;;;9.10;99.90;;;;;;5074966;28;20506;-84
2021/12/24 05:10:48;;;;;;;36.33;24.43;;;9.00;99.90;;;;;;5061351;28;20427;-83
2021/12/24 05:13:16;;;;;;;34.00;24.70;;;8.90;99.90;;;;;;5077270;28;20439;-84
2021/12/24 05:15:45;;;;;;;36.23;24.40;;;8.90;99.90;;;;;;5074639;28;20842;-82
2021/12/24 05:23:24;;;;;;;32.20;23.37;;;9.10;99.90;;;;;;5076987;28;20419;-81
2021/12/24 05:25:50;;;;;;;35.17;23.67;;;8.90;99.90;;;;;;5093818;28;20439;-81
2021/12/24 05:28:17;;;;;;;34.80;23.33;;;9.00;99.90;;;;;;5067213;28;20209;-83
2021/12/24 05:30:45;;;;;;;37.10;24.43;;;9.00;99.90;;;;;;5094083;28;20211;-82
2021/12/24 05:33:14;;;;;;;34.10;24.03;;;9.00;99.90;;;;;;5077301;28;20431;-83
2021/12/24 05:35:40;;;;;;;31.47;23.80;;;9.00;99.90;;;;;;5047580;28;20428;-83
2021/12/24 05:38:06;;;;;;;36.77;24.73;;;9.00;99.90;;;;;;5044387;28;20439;-82
2021/12/24 05:40:31;;;;;;;31.07;23.80;;;9.10;99.90;;;;;;5061304;28;20590;-83
2021/12/24 05:42:57;;;;;;;38.77;25.07;;;8.90;99.90;;;;;;5076849;28;20193;-83
2021/12/24 05:45:24;;;;;;;34.10;23.83;;;9.00;99.90;;;;;;5049936;28;20177;-83
2021/12/24 05:47:50;;;;;;;33.00;25.23;;;8.90;99.90;;;;;;5059910;28;20205;-82
2021/12/24 05:50:16;;;;;;;33.70;25.07;;;9.10;99.90;;;;;;5043697;28;20457;-84
2021/12/24 05:52:43;;;;;;;33.50;25.07;;;9.30;99.90;;;;;;5072855;28;20436;-84
2021/12/24 05:55:09;;;;;;;36.00;25.20;;;8.90;99.90;;;;;;5026123;28;21161;-83
2021/12/24 05:57:36;;;;;;;35.27;25.10;;;9.00;99.90;;;;;;5066970;28;20447;-83
2021/12/24 06:00:05;;;;;;;40.50;27.73;;;9.00;99.90;;;;;;5057210;28;20459;-84
2021/12/24 06:02:36;;;;;;;35.43;25.83;;;9.10;99.90;;;;;;5057675;28;20436;-83
2021/12/24 06:05:02;;;;;;;38.57;26.07;;;9.00;99.90;;;;;;5053237;28;20446;-83
2021/12/24 06:07:27;;;;;;;40.80;24.77;;;9.00;99.90;;;;;;5076128;28;20423;-83
2021/12/24 06:09:53;;;;;;;37.47;26.03;;;9.10;99.90;;;;;;5046739;28;20447;-83
2021/12/24 06:12:19;;;;;;;41.63;26.53;;;9.00;99.90;;;;;;5077267;28;20197;-83
2021/12/24 06:14:46;;;;;;;41.30;25.90;;;9.10;99.90;;;;;;5058604;28;20802;-83
2021/12/24 06:17:17;;;;;;;38.90;25.70;;;9.20;99.90;;;;;;5059588;28;20189;-81
2021/12/24 06:19:43;;;;;;;39.80;25.90;;;9.00;99.90;;;;;;5066401;28;21180;-83
2021/12/24 06:22:09;;;;;;;38.77;24.87;;;9.10;99.90;;;;;;5042530;28;20424;-82
2021/12/24 06:24:35;;;;;;;34.90;25.57;;;9.20;99.90;;;;;;5036991;28;20420;-83
2021/12/24 06:27:01;;;;;;;40.30;27.60;;;9.00;99.90;;;;;;5040669;28;20462;-84
2021/12/24 06:29:27;;;;;;;38.63;26.10;;;9.00;99.90;;;;;;5076699;28;20205;-82
2021/12/24 06:31:52;;;;;;;37.30;26.87;;;9.10;99.90;;;;;;5048796;28;20658;-83
2021/12/24 06:34:19;;;;;;;36.17;26.20;;;9.00;99.90;;;;;;5041407;28;20181;-82
2021/12/24 06:36:47;;;;;;;38.07;26.93;;;9.00;99.90;;;;;;5060175;28;20295;-83
2021/12/24 06:39:14;;;;;;;46.13;28.53;;;9.00;99.90;;;;;;5056891;28;20447;-84
2021/12/24 06:41:40;;;;;;;37.47;25.97;;;9.20;99.90;;;;;;5043207;28;20964;-81
2021/12/24 06:44:09;;;;;;;42.33;25.90;;;9.00;99.90;;;;;;5014112;28;20443;-82
2021/12/24 06:46:35;;;;;;;37.43;26.53;;;9.20;99.90;;;;;;5041358;28;20661;-83
2021/12/24 06:49:01;;;;;;;45.30;26.57;;;9.10;99.90;;;;;;5055921;28;20442;-82
2021/12/24 06:51:27;;;;;;;38.17;26.27;;;9.00;99.90;;;;;;5064141;28;20252;-84
2021/12/24 06:53:53;;;;;;;33.23;24.07;;;9.10;99.90;;;;;;5043379;28;20666;-82
2021/12/24 06:56:19;;;;;;;43.93;25.50;;;9.00;99.90;;;;;;5077117;28;21118;-82
2021/12/24 06:58:45;;;;;;;42.23;26.07;;;9.00;99.90;;;;;;5059670;28;20491;-83
2021/12/24 07:01:12;;;;;;;35.90;25.80;;;9.10;99.90;;;;;;5062971;28;20456;-85
2021/12/24 07:03:38;;;;;;;41.63;24.73;;;9.00;99.90;;;;;;5056421;28;20446;-86
2021/12/24 07:06:04;;;;;;;42.20;24.57;;;8.90;99.90;;;;;;5073730;28;20463;-84
2021/12/24 07:08:30;;;;;;;38.47;23.47;;;9.00;99.90;;;;;;5074594;28;20205;-86
2021/12/24 07:10:56;;;;;;;36.63;23.80;;;9.00;99.90;;;;;;5020030;28;20436;-83
2021/12/24 07:13:22;;;;;;;38.20;24.77;;;8.90;99.90;;;;;;5055867;28;20508;-85
2021/12/24 07:15:47;;;;;;;36.30;25.13;;;9.20;99.90;;;;;;5040149;28;20570;-83
2021/12/24 07:18:13;;;;;;;43.90;27.23;;;9.00;99.90;;;;;;5073057;28;20273;-85
2021/12/24 07:20:39;;;;;;;35.47;24.57;;;9.00;99.90;;;;;;5056115;28;20208;-84
2021/12/24 07:23:05;;;;;;;42.70;24.77;;;9.10;99.90;;;;;;5035697;28;20456;-84
2021/12/24 07:25:31;;;;;;;34.67;22.80;;;9.20;99.90;;;;;;5046199;28;20224;-86
2021/12/24 07:27:57;;;;;;;32.03;21.43;;;9.10;99.90;;;;;;5058713;28;20258;-84
2021/12/24 07:30:22;;;;;;;33.60;23.40;;;9.00;99.90;;;;;;5067092;28;20972;-84
2021/12/24 07:32:49;;;;;;;33.50;23.50;;;9.00;99.90;;;;;;5048297;28;20580;-82
2021/12/24 07:35:16;;;;;;;36.67;23.17;;;9.00;99.90;;;;;;5053196;28;20189;-83
2021/12/24 07:37:43;;;;;;;34.17;23.17;;;9.00;99.90;;;;;;5034742;28;20855;-82
2021/12/24 07:40:13;;;;;;;36.23;22.47;;;9.10;99.90;;;;;;5076112;28;20470;-81
2021/12/24 07:42:39;;;;;;;33.13;22.30;;;9.10;99.90;;;;;;5086727;28;20509;-81
2021/12/24 07:45:05;;;;;;;35.47;21.70;;;9.30;99.90;;;;;;5058208;28;20955;-85
2021/12/24 07:47:36;;;;;;;37.83;23.37;;;9.30;99.90;;;;;;5054342;28;20532;-84
2021/12/24 07:50:18;;;;;;;31.77;21.50;;;9.10;99.90;;;;;;5051748;28;20453;-84
2021/12/24 07:52:45;;;;;;;36.13;22.13;;;9.10;99.90;;;;;;5025002;28;20416;-83
2021/12/24 07:55:11;;;;;;;33.77;23.03;;;9.00;99.90;;;;;;5073803;28;20431;-83
2021/12/24 07:57:38;;;;;;;33.57;20.83;;;9.00;99.90;;;;;;5069631;28;20444;-81
2021/12/24 08:00:06;;;;;;;35.90;23.50;;;9.20;99.90;;;;;;5055928;28;20466;-83
2021/12/24 08:02:32;;;;;;;38.67;22.33;;;9.20;99.90;;;;;;5046002;28;20420;-83
2021/12/24 08:04:58;;;;;;;33.87;21.87;;;9.00;99.90;;;;;;5076807;28;20420;-82
2021/12/24 08:07:23;;;;;;;32.63;21.77;;;9.30;99.90;;;;;;5035134;28;20423;-83
2021/12/24 08:09:50;;;;;;;36.63;22.80;;;8.90;99.90;;;;;;5070276;28;20205;-80
2021/12/24 08:12:17;;;;;;;30.77;21.20;;;9.10;99.90;;;;;;5053692;28;20186;-82
2021/12/24 08:14:43;;;;;;;32.00;21.23;;;9.20;99.90;;;;;;5074233;28;20443;-83
2021/12/24 08:17:10;;;;;;;35.40;21.10;;;9.00;99.90;;;;;;5059461;28;20925;-83
2021/12/24 08:19:35;;;;;;;35.10;21.00;;;9.20;99.90;;;;;;5060842;28;20496;-82
2021/12/24 08:22:01;;;;;;;34.83;21.60;;;9.10;99.90;;;;;;5061108;28;20792;-82
2021/12/24 08:24:27;;;;;;;33.63;21.97;;;9.00;99.90;;;;;;5075135;28;20193;-83
2021/12/24 08:26:53;;;;;;;30.93;20.40;;;9.00;99.90;;;;;;5042996;28;20185;-83
2021/12/24 08:29:21;;;;;;;33.00;22.40;;;9.00;99.90;;;;;;5058438;28;20470;-81
2021/12/24 08:31:48;;;;;;;30.90;20.47;;;9.00;99.90;;;;;;5061710;28;20458;-82
2021/12/24 08:34:14;;;;;;;32.43;20.77;;;9.10;99.90;;;;;;5064621;28;20424;-82
2021/12/24 08:36:39;;;;;;;43.80;24.00;;;9.10;99.90;;;;;;5029226;28;20440;-82
2021/12/24 08:39:06;;;;;;;29.77;19.97;;;9.10;99.90;;;;;;5066843;28;20205;-81
2021/12/24 08:41:31;;;;;;;31.80;19.60;;;9.10;99.90;;;;;;5043615;28;20370;-80
2021/12/24 08:43:57;;;;;;;30.73;19.87;;;9.10;99.90;;;;;;5048955;28;20446;-84
2021/12/24 08:46:23;;;;;;;27.63;19.40;;;9.00;99.90;;;;;;5028193;28;20935;-81
2021/12/24 08:48:49;;;;;;;27.90;18.13;;;9.10;99.90;;;;;;5040744;28;20212;-81
2021/12/24 08:51:14;;;;;;;30.50;18.47;;;9.10;99.90;;;;;;5038111;28;20200;-84
2021/12/24 08:53:40;;;;;;;31.57;18.97;;;9.10;99.90;;;;;;5043536;28;20185;-82
2021/12/24 08:56:06;;;;;;;31.80;17.93;;;8.90;99.90;;;;;;5085749;28;20181;-81
2021/12/24 08:58:37;;;;;;;28.70;18.70;;;9.10;99.90;;;;;;5059816;28;20209;-83
2021/12/24 09:01:03;;;;;;;33.30;17.37;;;9.00;99.90;;;;;;5061028;28;20839;-82
2021/12/24 09:03:29;;;;;;;32.73;19.47;;;9.00;99.90;;;;;;5059493;28;20434;-83
2021/12/24 09:05:55;;;;;;;27.93;17.37;;;9.10;99.90;;;;;;5075952;28;21835;-83
2021/12/24 09:08:20;;;;;;;32.73;19.40;;;9.10;99.90;;;;;;5039861;28;20241;-83
2021/12/24 09:10:46;;;;;;;35.07;20.40;;;9.00;99.90;;;;;;5053146;28;20417;-82
2021/12/24 09:13:12;;;;;;;33.20;18.60;;;9.10;99.90;;;;;;5060543;28;20197;-83
2021/12/24 09:15:40;;;;;;;31.23;18.20;;;9.00;99.90;;;;;;5050726;28;20194;-84
2021/12/24 09:18:06;;;;;;;31.40;18.80;;;9.10;99.90;;;;;;5070864;28;20209;-84
2021/12/24 09:20:39;;;;;;;31.00;19.97;;;9.20;99.90;;;;;;5038600;28;20480;-82
2021/12/24 09:23:06;;;;;;;30.20;18.90;;;9.10;99.90;;;;;;5033265;28;20945;-83
2021/12/24 09:25:32;;;;;;;29.17;18.33;;;9.10;99.90;;;;;;5073125;28;20435;-83
2021/12/24 09:27:58;;;;;;;26.87;18.10;;;9.10;99.90;;;;;;5046788;28;20480;-83
2021/12/24 09:30:27;;;;;;;31.40;19.50;;;9.00;99.90;;;;;;5032668;28;20490;-83
2021/12/24 09:32:53;;;;;;;31.70;19.33;;;9.10;99.90;;;;;;5051516;28;20506;-84
2021/12/24 09:35:21;;;;;;;34.70;18.77;;;9.20;99.90;;;;;;5059544;28;20955;-83
2021/12/24 09:37:47;;;;;;;30.03;19.90;;;9.10;99.90;;;;;;5075930;28;20900;-82
2021/12/24 09:40:14;;;;;;;35.57;21.00;;;9.10;99.90;;;;;;5071140;28;20467;-83
2021/12/24 09:42:41;;;;;;;34.00;18.27;;;9.10;99.90;;;;;;5076524;28;20431;-84
2021/12/24 09:45:09;;;;;;;28.97;18.30;;;9.20;99.90;;;;;;5083299;28;20435;-82
2021/12/24 09:47:35;;;;;;;34.93;17.93;;;9.20;99.90;;;;;;5075544;28;20491;-82
2021/12/24 09:50:02;;;;;;;32.73;19.70;;;9.00;99.90;;;;;;5059511;28;20969;-82
2021/12/24 09:52:28;;;;;;;32.83;19.50;;;9.10;99.90;;;;;;5076848;28;20435;-83
2021/12/24 09:54:53;;;;;;;24.80;17.73;;;9.10;99.90;;;;;;5024879;28;20795;-82
2021/12/24 09:57:20;;;;;;;29.37;17.53;;;9.10;99.90;;;;;;5061356;28;20514;-84
2021/12/24 09:59:45;;;;;;;29.27;17.63;;;9.10;99.90;;;;;;5075736;28;20200;-82
2021/12/24 10:02:18;;;;;;;27.73;17.20;;;9.30;99.90;;;;;;5042582;28;20454;-83
2021/12/24 10:04:46;;;;;;;25.30;17.40;;;9.20;99.90;;;;;;5043546;28;20427;-84
2021/12/24 10:07:16;;;;;;;30.03;18.53;;;9.20;99.90;;;;;;5060014;28;20419;-83
2021/12/24 10:09:49;;;;;;;26.30;17.97;;;9.00;99.90;;;;;;5045912;28;20436;-83
2021/12/24 10:12:23;;;;;;;30.93;19.43;;;9.40;99.90;;;;;;5075780;28;20419;-84
2021/12/24 10:14:57;;;;;;;26.23;17.00;;;9.50;99.90;;;;;;5074464;28;20434;-82
2021/12/24 10:17:26;;;;;;;30.67;18.10;;;9.30;99.90;;;;;;5065861;28;20432;-84
2021/12/24 10:19:58;;;;;;;30.17;19.10;;;9.40;99.90;;;;;;5026709;28;20411;-83
2021/12/24 10:22:25;;;;;;;36.93;17.90;;;9.20;99.90;;;;;;5062629;28;20415;-83
2021/12/24 10:25:00;;;;;;;28.40;17.70;;;9.30;99.90;;;;;;5062501;28;20581;-84
2021/12/24 10:27:32;;;;;;;32.83;18.63;;;9.20;99.90;;;;;;5072041;28;20423;-84
2021/12/24 10:29:59;;;;;;;28.27;17.83;;;9.10;99.90;;;;;;5017849;28;20431;-84
2021/12/24 10:32:26;;;;;;;34.37;18.13;;;9.20;99.90;;;;;;5052199;28;20439;-82
2021/12/24 10:34:52;;;;;;;27.80;17.87;;;9.20;99.90;;;;;;5056104;28;20443;-83
2021/12/24 10:37:24;;;;;;;31.67;17.50;;;9.40;99.90;;;;;;5076120;28;20480;-83
2021/12/24 10:39:57;;;;;;;29.40;17.10;;;9.50;99.90;;;;;;5073323;28;20419;-82
2021/12/24 10:42:27;;;;;;;26.77;17.37;;;9.30;99.90;;;;;;5079311;28;20961;-83
2021/12/24 10:44:55;;;;;;;30.07;16.20;;;9.30;99.90;;;;;;5062266;28;20436;-82
2021/12/24 10:47:26;;;;;;;24.80;15.83;;;9.30;99.90;;;;;;5046281;28;20515;-84
2021/12/24 10:53:15;;;;;;;30.73;18.60;;;9.20;99.90;;;;;;5050934;28;20408;-83
2021/12/24 10:55:47;;;;;;;28.50;17.37;;;9.30;99.90;;;;;;5073381;28;20415;-82
2021/12/24 10:58:22;;;;;;;29.43;18.73;;;9.20;99.90;;;;;;5052005;28;20435;-83
2021/12/24 11:00:56;;;;;;;22.40;15.60;;;9.20;99.90;;;;;;5069056;28;20467;-82
2021/12/24 11:03:25;;;;;;;25.37;16.23;;;9.40;99.90;;;;;;5035057;28;20432;-83
2021/12/24 11:06:02;;;;;;;20.23;14.23;;;9.20;99.90;;;;;;5050893;28;20419;-82
2021/12/24 11:08:29;;;;;;;30.50;17.30;;;9.20;99.90;;;;;;5075064;28;20450;-79
2021/12/24 11:11:00;;;;;;;24.43;14.87;;;9.30;99.90;;;;;;5038995;28;20439;-82
2021/12/24 11:13:39;;;;;;;20.93;14.33;;;9.50;99.90;;;;;;5075497;28;20430;-83
2021/12/24 11:16:07;;;;;;;21.07;13.47;;;9.60;99.90;;;;;;5053770;28;20445;-84
2021/12/24 11:18:38;;;;;;;19.70;13.40;;;9.70;99.90;;;;;;5048236;28;20443;-82
2021/12/24 11:21:08;;;;;;;20.07;14.00;;;10.00;99.90;;;;;;5075397;28;20459;-82
2021/12/24 11:23:36;;;;;;;26.37;15.83;;;10.50;99.90;;;;;;5067362;28;20474;-81
2021/12/24 11:26:12;;;;;;;23.47;13.87;;;10.50;99.90;;;;;;5072967;28;20987;-82
2021/12/24 11:28:40;;;;;;;27.90;15.50;;;10.70;99.90;;;;;;5068484;28;20450;-84
2021/12/24 11:31:12;;;;;;;22.80;15.03;;;10.90;99.90;;;;;;5070265;28;20451;-83
2021/12/24 11:33:42;;;;;;;18.10;13.27;;;11.30;99.90;;;;;;5057027;28;20438;-82
2021/12/24 11:36:10;;;;;;;19.83;14.27;;;11.30;99.90;;;;;;5045189;28;20594;-84
2021/12/24 11:38:39;;;;;;;18.03;11.50;;;11.90;99.90;;;;;;5020123;28;20448;-84
2021/12/24 11:41:07;;;;;;;20.50;11.60;;;12.00;99.90;;;;;;5054017;28;20460;-83
2021/12/24 11:43:36;;;;;;;15.97;10.10;;;12.30;99.90;;;;;;5021109;28;20435;-84
2021/12/24 11:46:05;;;;;;;14.80;10.87;;;12.50;99.90;;;;;;5066378;28;20419;-84
2021/12/24 11:48:33;;;;;;;20.07;10.63;;;12.80;99.90;;;;;;5077599;28;20489;-84
2021/12/24 11:51:09;;;;;;;22.10;10.23;;;12.90;99.90;;;;;;5053151;28;20749;-83
2021/12/24 11:53:36;;;;;;;13.13;9.23;;;13.20;99.90;;;;;;5061870;28;20431;-81
2021/12/24 11:56:08;;;;;;;13.47;10.17;;;13.60;99.90;;;;;;5039213;28;20442;-83
2021/12/24 11:58:52;;;;;;;14.23;8.63;;;14.00;99.90;;;;;;5075997;28;20529;-82
2021/12/24 12:01:21;;;;;;;11.70;8.87;;;14.10;99.90;;;;;;5075688;28;20504;-83
2021/12/24 12:03:53;;;;;;;11.43;8.50;;;14.50;99.90;;;;;;5048854;28;20515;-83
2021/12/24 12:06:25;;;;;;;14.03;9.00;;;14.50;99.90;;;;;;5037563;28;20492;-82
2021/12/24 12:08:56;;;;;;;18.10;8.27;;;14.60;99.90;;;;;;5043056;28;20436;-83
2021/12/24 12:11:27;;;;;;;11.47;8.50;;;14.60;99.90;;;;;;5073325;28;20426;-82
2021/12/24 12:14:01;;;;;;;10.00;8.40;;;14.40;99.90;;;;;;5071984;28;20456;-83
2021/12/24 12:16:39;;;;;;;11.47;8.70;;;14.60;99.90;;;;;;5072728;28;20505;-82
2021/12/24 12:19:13;;;;;;;11.67;8.87;;;14.70;99.90;;;;;;5071193;28;20443;-82
2021/12/24 12:21:44;;;;;;;15.90;9.40;;;14.40;99.90;;;;;;5051904;28;20959;-84
2021/12/24 12:26:44;;;;;;;14.03;9.57;;;14.30;99.90;;;;;;5051791;28;20788;-85
2021/12/24 12:29:32;;;;;;;12.17;8.43;;;14.60;99.90;;;;;;5053474;28;20456;-83
2021/12/24 12:32:27;;;;;;;15.63;8.53;;;14.60;99.90;;;;;;5060445;28;20452;-84
2021/12/24 12:34:59;;;;;;;12.57;9.70;;;14.40;99.90;;;;;;5071569;28;20422;-84
2021/12/24 12:37:27;;;;;;;13.17;10.17;;;14.10;99.90;;;;;;5044639;28;20439;-82
2021/12/24 12:39:55;;;;;;;10.10;9.10;;;13.90;99.90;;;;;;5074208;28;20486;-83
2021/12/24 12:42:54;;;;;;;12.10;10.40;;;13.60;99.90;;;;;;5064080;28;20423;-82
2021/12/24 12:45:32;;;;;;;14.00;10.13;;;13.50;99.90;;;;;;5055125;28;20424;-83
2021/12/24 12:48:00;;;;;;;14.40;11.33;;;13.50;99.90;;;;;;5059620;28;20781;-79
2021/12/24 12:50:28;;;;;;;14.83;11.60;;;13.60;99.90;;;;;;5061909;28;20456;-83
2021/12/24 12:53:22;;;;;;;13.87;10.80;;;13.70;99.90;;;;;;5056849;28;20427;-80
2021/12/24 12:56:09;;;;;;;16.90;11.43;;;13.80;99.90;;;;;;5067442;28;20864;-81
2021/12/24 12:58:36;;;;;;;17.63;12.10;;;13.80;99.90;;;;;;5072969;28;20461;-80
2021/12/24 13:01:09;;;;;;;17.13;11.30;;;13.80;99.90;;;;;;5057744;28;20451;-81
2021/12/24 13:03:57;;;;;;;15.77;11.90;;;14.00;99.90;;;;;;5062383;28;20513;-81
2021/12/24 13:06:41;;;;;;;16.43;12.87;;;13.90;99.90;;;;;;5075503;28;20424;-83
2021/12/24 13:09:18;;;;;;;18.33;12.13;;;13.70;99.90;;;;;;5075877;28;20446;-81
2021/12/24 13:11:46;;;;;;;16.17;11.17;;;13.60;99.90;;;;;;5082470;28;20435;-82
2021/12/24 13:14:14;;;;;;;16.60;12.50;;;13.60;99.90;;;;;;5052994;28;20450;-82
2021/12/24 13:17:16;;;;;;;20.70;12.50;;;13.40;99.90;;;;;;5065061;28;20470;-83
2021/12/24 13:20:11;;;;;;;14.50;12.40;;;13.30;99.90;;;;;;5079678;28;20441;-82
2021/12/24 13:22:30;;;;;;;18.60;12.60;;;13.20;99.90;;;;;;5077951;28;20431;-82
2021/12/24 13:25:13;;;;;;;15.67;11.40;;;13.40;99.90;;;;;;5082375;28;20556;-82
2021/12/24 13:27:45;;;;;;;18.93;12.80;;;13.60;99.90;;;;;;5063938;28;20427;-81
2021/12/24 13:30:19;;;;;;;16.07;11.90;;;13.60;99.90;;;;;;5037834;28;20462;-83
2021/12/24 13:33:07;;;;;;;16.83;12.50;;;13.60;99.90;;;;;;5098078;28;20430;-83
2021/12/24 13:35:46;;;;;;;16.80;13.23;;;13.70;99.90;;;;;;5073956;28;20873;-85
2021/12/24 13:38:13;;;;;;;18.87;14.77;;;13.50;99.90;;;;;;5028688;28;20988;-82
2021/12/24 13:40:39;;;;;;;18.57;13.23;;;13.20;99.90;;;;;;5050337;28;20474;-84
2021/12/24 13:43:07;;;;;;;23.13;14.73;;;13.20;99.90;;;;;;5068540;28;20420;-82
2021/12/24 13:45:37;;;;;;;23.13;15.20;;;13.10;99.90;;;;;;5037247;28;20269;-84
2021/12/24 13:48:11;;;;;;;18.27;13.63;;;13.00;99.90;;;;;;5036981;28;20548;-81
2021/12/24 13:56:16;;;;;;;22.13;14.10;;;13.10;99.90;;;;;;5072552;28;20514;-81
2021/12/24 13:58:57;;;;;;;17.83;12.73;;;13.10;99.90;;;;;;5103058;27;20558;-44
2021/12/24 14:01:29;;;;;;;21.07;14.03;;;13.30;99.90;;;;;;5097717;28;20760;-44
2021/12/24 14:03:56;;;;;;;19.03;14.40;;;13.40;99.90;;;;;;5079323;28;20434;-42
2021/12/24 14:06:38;;;;;;;24.80;14.60;;;13.60;99.90;;;;;;5087996;28;20780;-41
2021/12/24 14:09:10;;;;;;;18.60;14.50;;;13.60;99.90;;;;;;5103568;28;20766;-43
2021/12/24 14:11:37;;;;;;;21.90;14.10;;;13.80;99.90;;;;;;5086007;28;20431;-42
2021/12/24 14:14:09;;;;;;;17.80;13.77;;;13.60;99.90;;;;;;5082301;28;21074;-44
2021/12/24 14:19:36;;;;;;;19.83;13.37;;;13.90;99.90;;;;;;5077328;28;20958;-44
2021/12/24 14:22:06;;;;;;;15.77;11.80;;;14.00;99.90;;;;;;5080512;28;20410;-44
2021/12/24 14:24:36;;;;;;;19.33;14.03;;;14.00;99.90;;;;;;5080409;28;20782;-42
2021/12/24 14:27:07;;;;;;;19.77;13.47;;;14.00;99.90;;;;;;5082480;28;20423;-41
2021/12/24 14:29:38;;;;;;;19.73;14.70;;;13.90;99.90;;;;;;5082970;28;20410;-43
2021/12/24 14:32:10;;;;;;;17.83;12.50;;;14.10;99.90;;;;;;5083808;28;20489;-47
2021/12/24 14:34:39;;;;;;;21.73;14.47;;;13.90;99.90;;;;;;5079555;28;20629;-44
2021/12/24 14:37:23;;;;;;;18.60;13.93;;;13.70;99.90;;;;;;5083302;28;20517;-43
2021/12/24 14:39:56;;;;;;;17.67;12.87;;;13.40;99.90;;;;;;5084600;28;20614;-43